createdAt,value
2022-12-20T00:01:34.714Z,22.70
2022-12-20T00:04:05.695Z,22.90
2022-12-20T00:06:35.577Z,20.60
2022-12-20T00:09:05.175Z,20.67
2022-12-20T00:13:59.608Z,21.35
2022-12-20T00:16:28.427Z,21.17
2022-12-20T00:18:57.959Z,21.50
2022-12-20T00:23:54.025Z,19.08
2022-12-20T00:26:24.305Z,21.30
2022-12-20T00:28:53.390Z,19.85
2022-12-20T00:31:22.157Z,20.20
2022-12-20T00:33:51.441Z,21.38
2022-12-20T00:36:19.476Z,21.67
2022-12-20T00:38:48.054Z,21.67
2022-12-20T00:41:18.513Z,19.77
2022-12-20T00:43:45.782Z,20.33
2022-12-20T00:46:14.592Z,20.60
2022-12-20T00:48:42.112Z,21.13
2022-12-20T00:51:12.223Z,20.20
2022-12-20T00:53:39.749Z,20.60
2022-12-20T00:56:08.183Z,21.73
2022-12-20T00:58:37.743Z,21.48
2022-12-20T01:03:34.395Z,20.02
2022-12-20T01:06:03.342Z,21.15
2022-12-20T01:08:31.687Z,21.98
2022-12-20T01:11:08.282Z,21.23
2022-12-20T01:13:37.394Z,19.85
2022-12-20T01:18:36.558Z,20.27
2022-12-20T01:21:05.907Z,20.48
2022-12-20T01:23:33.201Z,19.70
2022-12-20T01:26:06.100Z,20.17
2022-12-20T01:28:33.380Z,19.45
2022-12-20T01:31:00.458Z,21.48
2022-12-20T01:33:28.231Z,21.27
2022-12-20T01:36:00.906Z,21.10
2022-12-20T01:38:28.843Z,20.90
2022-12-20T01:40:57.709Z,20.92
2022-12-20T01:43:26.286Z,20.90
2022-12-20T01:45:53.375Z,20.97
2022-12-20T01:48:26.354Z,21.35
2022-12-20T01:50:54.184Z,20.42
2022-12-20T01:53:23.656Z,21.02
2022-12-20T01:55:50.898Z,20.77
2022-12-20T01:58:20.064Z,21.90
2022-12-20T02:00:47.952Z,19.30
2022-12-20T02:03:16.944Z,20.00
2022-12-20T02:05:45.959Z,17.15
2022-12-20T02:08:16.376Z,19.77
2022-12-20T02:11:04.487Z,20.55
2022-12-20T02:14:03.608Z,19.98
2022-12-20T02:16:36.705Z,21.58
2022-12-20T02:19:42.934Z,21.20
2022-12-20T02:22:31.017Z,22.23
2022-12-20T02:25:17.106Z,21.52
2022-12-20T02:27:50.087Z,20.98
2022-12-20T02:30:22.822Z,21.13
2022-12-20T02:33:03.898Z,21.63
2022-12-20T02:35:35.499Z,21.35
2022-12-20T02:38:24.957Z,20.33
2022-12-20T02:40:58.102Z,16.00
2022-12-20T02:43:45.765Z,19.48
2022-12-20T02:46:15.078Z,18.98
2022-12-20T02:48:43.166Z,18.70
2022-12-20T02:51:12.030Z,21.65
2022-12-20T02:53:42.696Z,19.55
2022-12-20T02:56:20.054Z,20.08
2022-12-20T02:59:04.358Z,19.80
2022-12-20T03:01:37.910Z,20.15
2022-12-20T03:04:06.837Z,21.15
2022-12-20T03:06:34.286Z,20.20
2022-12-20T03:09:02.205Z,19.40
2022-12-20T03:11:32.150Z,20.33
2022-12-20T03:13:59.234Z,18.02
2022-12-20T03:16:26.224Z,19.40
2022-12-20T03:18:53.447Z,19.17
2022-12-20T03:21:37.851Z,17.63
2022-12-20T03:24:05.082Z,16.73
2022-12-20T03:26:32.439Z,17.33
2022-12-20T03:29:00.887Z,16.85
2022-12-20T03:31:28.741Z,17.92
2022-12-20T03:33:55.970Z,20.20
2022-12-20T03:36:24.229Z,16.27
2022-12-20T03:38:59.223Z,16.90
2022-12-20T03:41:28.283Z,15.40
2022-12-20T03:43:55.308Z,10.85
2022-12-20T03:46:23.398Z,10.60
2022-12-20T03:48:50.794Z,13.15
2022-12-20T03:51:17.891Z,9.50
2022-12-20T03:53:45.506Z,6.93
2022-12-20T03:56:14.202Z,9.48
2022-12-20T03:58:42.784Z,13.45
2022-12-20T04:01:20.618Z,9.68
2022-12-20T04:03:48.379Z,13.63
2022-12-20T04:06:16.101Z,12.00
2022-12-20T04:08:43.367Z,11.10
2022-12-20T04:11:17.944Z,10.13
2022-12-20T04:13:52.885Z,11.82
2022-12-20T04:16:27.850Z,10.57
2022-12-20T04:18:55.737Z,9.10
2022-12-20T04:21:29.012Z,12.02
2022-12-20T04:23:59.229Z,9.25
2022-12-20T04:26:35.294Z,9.60
2022-12-20T04:29:04.107Z,9.25
2022-12-20T04:31:32.199Z,9.60
2022-12-20T04:34:00.330Z,10.30
2022-12-20T04:36:28.793Z,16.70
2022-12-20T04:38:57.384Z,27.73
2022-12-20T04:41:24.536Z,16.02
2022-12-20T04:43:58.373Z,11.70
2022-12-20T04:46:33.637Z,12.73
2022-12-20T04:49:01.712Z,11.85
2022-12-20T04:51:31.662Z,13.00
2022-12-20T04:53:59.146Z,14.18
2022-12-20T04:56:41.090Z,13.73
2022-12-20T05:01:41.701Z,13.75
2022-12-20T05:04:09.292Z,13.95
2022-12-20T05:06:37.597Z,15.35
2022-12-20T05:09:04.789Z,15.10
2022-12-20T05:11:33.342Z,15.07
2022-12-20T05:14:01.323Z,14.10
2022-12-20T05:16:28.485Z,14.55
2022-12-20T05:18:55.861Z,13.52
2022-12-20T05:21:41.360Z,13.70
2022-12-20T05:24:28.695Z,13.35
2022-12-20T05:27:19.606Z,25.65
2022-12-20T05:29:47.331Z,23.77
2022-12-20T05:32:15.017Z,20.20
2022-12-20T05:37:10.917Z,14.25
2022-12-20T05:39:39.978Z,15.10
2022-12-20T05:42:13.249Z,15.18
2022-12-20T05:44:40.180Z,16.60
2022-12-20T05:47:07.279Z,16.23
2022-12-20T05:49:36.355Z,14.98
2022-12-20T05:52:06.207Z,15.35
2022-12-20T05:54:34.894Z,13.75
2022-12-20T05:57:16.907Z,13.98
2022-12-20T05:59:44.445Z,14.80
2022-12-20T06:02:21.523Z,13.75
2022-12-20T06:04:52.429Z,13.90
2022-12-20T06:07:22.302Z,14.48
2022-12-20T06:09:53.471Z,15.07
2022-12-20T06:12:25.394Z,14.05
2022-12-20T06:14:53.108Z,15.00
2022-12-20T06:17:21.973Z,14.02
2022-12-20T06:19:49.268Z,14.13
2022-12-20T06:22:17.270Z,14.20
2022-12-20T06:24:56.698Z,15.73
2022-12-20T06:27:27.618Z,13.60
2022-12-20T06:30:06.203Z,14.32
2022-12-20T06:32:45.300Z,14.55
2022-12-20T06:35:13.371Z,16.30
2022-12-20T06:37:41.607Z,15.63
2022-12-20T06:40:11.044Z,15.57
2022-12-20T06:42:38.510Z,16.58
2022-12-20T06:45:07.592Z,15.13
2022-12-20T06:47:35.623Z,18.30
2022-12-20T06:50:04.907Z,19.67
2022-12-20T06:52:32.256Z,18.65
2022-12-20T06:55:00.323Z,16.30
2022-12-20T06:57:27.517Z,16.70
2022-12-20T06:59:55.156Z,16.13
2022-12-20T07:02:24.114Z,14.43
2022-12-20T07:04:54.426Z,17.45
2022-12-20T07:07:21.535Z,17.30
2022-12-20T07:09:48.619Z,16.63
2022-12-20T07:12:16.016Z,14.85
2022-12-20T07:14:43.045Z,15.25
2022-12-20T07:17:10.812Z,14.02
2022-12-20T07:19:37.960Z,14.93
2022-12-20T07:22:05.817Z,13.98
2022-12-20T07:24:33.669Z,14.05
2022-12-20T07:27:01.563Z,13.98
2022-12-20T07:29:29.043Z,14.98
2022-12-20T07:31:56.365Z,13.68
2022-12-20T07:34:23.654Z,14.80
2022-12-20T07:36:50.617Z,15.15
2022-12-20T07:39:18.430Z,14.82
2022-12-20T07:41:48.582Z,15.55
2022-12-20T07:44:17.150Z,16.13
2022-12-20T07:46:44.277Z,15.02
2022-12-20T07:49:11.280Z,15.93
2022-12-20T07:51:49.334Z,16.45
2022-12-20T07:54:21.429Z,15.43
2022-12-20T07:56:53.413Z,14.43
2022-12-20T07:59:25.524Z,15.35
2022-12-20T08:01:52.820Z,15.10
2022-12-20T08:04:25.127Z,14.45
2022-12-20T08:06:55.966Z,13.85
2022-12-20T08:09:25.737Z,13.70
2022-12-20T08:11:53.504Z,14.30
2022-12-20T08:14:21.195Z,15.25
2022-12-20T08:16:48.278Z,14.38
2022-12-20T08:19:15.303Z,15.38
2022-12-20T08:21:42.345Z,14.93
2022-12-20T08:24:09.408Z,14.68
2022-12-20T08:26:41.645Z,15.70
2022-12-20T08:29:09.259Z,16.67
2022-12-20T08:31:44.537Z,16.25
2022-12-20T08:34:16.591Z,15.43
2022-12-20T08:36:43.921Z,21.30
2022-12-20T08:39:11.679Z,24.10
2022-12-20T08:41:38.930Z,23.65
2022-12-20T08:44:06.738Z,17.63
2022-12-20T08:46:34.222Z,19.63
2022-12-20T08:49:01.297Z,18.05
2022-12-20T08:51:29.393Z,18.55
2022-12-20T08:53:56.647Z,16.70
2022-12-20T08:56:24.339Z,17.83
2022-12-20T08:58:51.388Z,17.75
2022-12-20T09:01:20.715Z,17.38
2022-12-20T09:03:49.012Z,17.95
2022-12-20T09:06:22.372Z,17.15
2022-12-20T09:08:50.044Z,18.00
2022-12-20T09:11:20.316Z,17.23
2022-12-20T09:13:49.775Z,17.88
2022-12-20T09:16:22.097Z,16.52
2022-12-20T09:18:54.759Z,16.50
2022-12-20T09:21:24.917Z,15.73
2022-12-20T09:23:53.887Z,15.88
2022-12-20T09:26:22.471Z,13.98
2022-12-20T09:28:49.942Z,19.75
2022-12-20T09:31:22.256Z,19.30
2022-12-20T09:33:49.633Z,22.10
2022-12-20T09:36:19.515Z,17.70
2022-12-20T09:38:47.372Z,19.38
2022-12-20T09:41:35.337Z,19.13
2022-12-20T09:44:16.297Z,17.67
2022-12-20T09:46:44.636Z,16.00
2022-12-20T09:49:17.284Z,15.35
2022-12-20T09:51:44.352Z,15.55
2022-12-20T09:54:21.140Z,16.17
2022-12-20T09:57:28.364Z,15.20
2022-12-20T09:59:58.114Z,14.63
2022-12-20T10:05:56.324Z,14.68
2022-12-20T10:08:45.335Z,16.02
2022-12-20T10:11:48.059Z,13.75
2022-12-20T10:14:36.213Z,14.98
2022-12-20T10:17:10.771Z,14.82
2022-12-20T10:20:00.993Z,14.77
2022-12-20T10:22:40.537Z,16.15
2022-12-20T10:27:48.468Z,15.53
2022-12-20T10:30:18.506Z,15.32
2022-12-20T10:32:47.334Z,15.40
2022-12-20T10:35:44.240Z,14.53
2022-12-20T10:38:12.912Z,13.80
2022-12-20T10:41:20.887Z,14.65
2022-12-20T10:43:49.827Z,13.43
2022-12-20T10:46:17.173Z,15.15
2022-12-20T10:48:47.205Z,14.32
2022-12-20T10:51:18.045Z,15.10
2022-12-20T10:53:59.062Z,16.60
2022-12-20T10:56:36.497Z,16.90
2022-12-20T10:59:34.978Z,14.18
2022-12-20T11:02:03.850Z,16.00
2022-12-20T11:04:36.325Z,17.23
2022-12-20T11:07:22.408Z,16.50
2022-12-20T11:09:57.587Z,13.35
2022-12-20T11:12:24.827Z,16.33
2022-12-20T11:15:12.571Z,14.68
2022-12-20T11:17:48.942Z,15.02
2022-12-20T11:20:26.943Z,16.90
2022-12-20T11:27:15.479Z,15.20
2022-12-20T11:30:01.328Z,15.95
2022-12-20T11:32:48.931Z,17.08
2022-12-20T11:35:29.015Z,15.05
2022-12-20T11:38:10.716Z,15.10
2022-12-20T11:41:28.831Z,15.32
2022-12-20T11:44:36.213Z,14.90
2022-12-20T11:47:29.464Z,14.88
2022-12-20T11:50:04.420Z,16.08
2022-12-20T11:52:41.836Z,16.55
2022-12-20T11:55:20.784Z,15.23
2022-12-20T11:58:18.720Z,15.02
2022-12-20T12:01:03.660Z,14.07
2022-12-20T12:03:39.981Z,15.27
2022-12-20T12:06:12.843Z,18.48
2022-12-20T12:08:47.201Z,18.27
2022-12-20T12:14:31.046Z,20.15
2022-12-20T12:17:05.497Z,20.42
2022-12-20T12:19:37.424Z,21.50
2022-12-20T12:22:12.320Z,21.48
2022-12-20T12:24:44.853Z,21.50
2022-12-20T12:27:23.169Z,21.92
2022-12-20T12:29:50.788Z,18.73
2022-12-20T12:32:30.802Z,18.67
2022-12-20T12:35:11.959Z,15.93
2022-12-20T12:38:03.911Z,20.88
2022-12-20T12:41:21.972Z,17.10
2022-12-20T12:44:18.851Z,17.25
2022-12-20T12:46:52.675Z,16.38
2022-12-20T12:49:22.896Z,17.92
2022-12-20T12:51:53.243Z,16.42
2022-12-20T12:54:28.611Z,15.25
2022-12-20T12:57:17.887Z,13.07
2022-12-20T12:59:48.135Z,14.45
2022-12-20T13:02:15.810Z,14.65
2022-12-20T13:05:02.217Z,13.85
2022-12-20T13:07:32.695Z,13.05
2022-12-20T13:10:20.229Z,14.32
2022-12-20T13:12:50.489Z,13.77
2022-12-20T13:15:20.557Z,13.40
2022-12-20T13:18:12.204Z,13.70
2022-12-20T13:20:39.593Z,13.57
2022-12-20T13:23:10.621Z,13.68
2022-12-20T13:25:48.317Z,13.32
2022-12-20T13:28:24.568Z,12.43
2022-12-20T13:31:04.917Z,13.20
2022-12-20T13:33:43.041Z,13.70
2022-12-20T13:36:10.061Z,15.50
2022-12-20T13:38:48.096Z,15.52
2022-12-20T13:41:36.082Z,14.63
2022-12-20T13:44:15.305Z,12.63
2022-12-20T13:46:48.356Z,13.35
2022-12-20T13:49:29.743Z,14.65
2022-12-20T13:52:25.765Z,12.95
2022-12-20T13:54:57.088Z,19.25
2022-12-20T13:57:33.055Z,18.38
2022-12-20T14:00:07.375Z,12.75
2022-12-20T14:02:41.747Z,12.52
2022-12-20T14:05:27.447Z,12.85
2022-12-20T14:08:08.326Z,13.32
2022-12-20T14:10:36.044Z,14.75
2022-12-20T14:13:03.888Z,14.82
2022-12-20T14:15:33.645Z,14.57
2022-12-20T14:18:26.256Z,13.70
2022-12-20T14:21:01.992Z,13.98
2022-12-20T14:23:50.877Z,13.57
2022-12-20T14:26:24.895Z,12.73
2022-12-20T14:28:55.158Z,13.25
2022-12-20T14:31:33.803Z,13.05
2022-12-20T14:34:07.239Z,12.87
2022-12-20T14:36:35.816Z,13.77
2022-12-20T14:39:26.438Z,13.23
2022-12-20T14:41:59.132Z,13.55
2022-12-20T14:44:29.084Z,14.00
2022-12-20T14:46:58.981Z,13.73
2022-12-20T14:49:37.641Z,13.88
2022-12-20T14:52:18.236Z,15.93
2022-12-20T14:55:08.803Z,15.18
2022-12-20T14:57:37.127Z,20.10
2022-12-20T15:00:27.842Z,25.63
2022-12-20T15:03:03.289Z,17.85
2022-12-20T15:05:40.047Z,12.73
2022-12-20T15:08:22.626Z,12.88
2022-12-20T15:11:01.252Z,13.10
2022-12-20T15:13:34.608Z,12.40
2022-12-20T15:16:04.827Z,12.85
2022-12-20T15:18:32.190Z,14.52
2022-12-20T15:21:05.691Z,17.98
2022-12-20T15:23:32.976Z,14.57
2022-12-20T15:25:59.978Z,14.50
2022-12-20T15:29:40.215Z,12.70
2022-12-20T15:32:15.816Z,13.00
2022-12-20T15:34:43.410Z,13.20
2022-12-20T15:37:18.316Z,14.10
2022-12-20T15:39:46.741Z,13.80
2022-12-20T15:42:17.612Z,14.02
2022-12-20T15:44:45.428Z,19.73
2022-12-20T15:47:17.283Z,22.83
2022-12-20T15:49:49.877Z,16.92
2022-12-20T15:52:22.398Z,15.63
2022-12-20T15:54:50.307Z,14.07
2022-12-20T15:57:17.333Z,15.45
2022-12-20T16:00:02.205Z,15.68
2022-12-20T16:02:38.698Z,13.90
2022-12-20T16:05:06.364Z,14.68
2022-12-20T16:07:33.636Z,14.95
2022-12-20T16:10:01.526Z,17.35
2022-12-20T16:12:35.907Z,17.67
2022-12-20T16:15:03.483Z,18.67
2022-12-20T16:17:35.699Z,21.52
2022-12-20T16:20:02.722Z,16.02
2022-12-20T16:22:29.698Z,14.63
2022-12-20T16:24:56.720Z,14.45
2022-12-20T16:27:23.790Z,13.52
2022-12-20T16:29:50.775Z,15.18
2022-12-20T16:32:20.376Z,17.60
2022-12-20T16:34:49.411Z,17.42
2022-12-20T16:37:18.681Z,16.53
2022-12-20T16:39:47.573Z,14.80
2022-12-20T16:42:22.461Z,15.43
2022-12-20T16:44:54.637Z,13.70
2022-12-20T16:47:22.138Z,13.73
2022-12-20T16:49:52.903Z,13.95
2022-12-20T16:52:22.688Z,14.02
2022-12-20T16:54:50.197Z,13.90
2022-12-20T16:57:17.232Z,14.95
2022-12-20T16:59:44.785Z,16.35
2022-12-20T17:02:27.439Z,14.60
2022-12-20T17:04:54.679Z,14.82
2022-12-20T17:07:22.668Z,12.75
2022-12-20T17:12:34.571Z,12.70
2022-12-20T17:15:01.558Z,13.45
2022-12-20T17:17:28.525Z,12.77
2022-12-20T17:19:55.510Z,12.77
2022-12-20T17:25:11.885Z,12.25
2022-12-20T17:27:38.871Z,12.55
2022-12-20T17:30:06.655Z,13.80
2022-12-20T17:32:33.649Z,13.02
2022-12-20T17:35:00.519Z,12.25
2022-12-20T17:37:27.966Z,16.65
2022-12-20T17:39:54.921Z,25.45
2022-12-20T17:42:27.037Z,19.98
2022-12-20T17:44:57.783Z,16.25
2022-12-20T17:47:24.758Z,14.25
2022-12-20T17:49:52.426Z,14.13
2022-12-20T17:52:21.699Z,14.65
2022-12-20T17:54:48.848Z,15.10
2022-12-20T17:57:16.748Z,16.90
2022-12-20T17:59:44.215Z,19.13
2022-12-20T18:02:30.271Z,16.65
2022-12-20T18:04:57.736Z,13.90
2022-12-20T18:07:24.703Z,13.85
2022-12-20T18:09:51.653Z,13.73
2022-12-20T18:12:18.694Z,12.32
2022-12-20T18:14:48.007Z,11.52
2022-12-20T18:17:15.102Z,13.27
2022-12-20T18:19:43.915Z,10.63
2022-12-20T18:22:11.035Z,11.80
2022-12-20T18:24:37.958Z,11.52
2022-12-20T18:27:04.977Z,14.63
2022-12-20T18:29:31.997Z,14.60
2022-12-20T18:31:59.078Z,11.25
2022-12-20T18:34:26.136Z,12.07
2022-12-20T18:36:53.139Z,12.60
2022-12-20T18:39:20.152Z,12.48
2022-12-20T18:41:48.538Z,15.40
2022-12-20T18:44:15.569Z,14.45
2022-12-20T18:46:42.553Z,14.73
2022-12-20T18:49:09.697Z,13.93
2022-12-20T18:51:37.240Z,11.95
2022-12-20T18:54:06.136Z,12.63
2022-12-20T18:56:35.535Z,13.43
2022-12-20T18:59:10.797Z,14.85
2022-12-20T19:01:40.442Z,15.93
2022-12-20T19:04:08.698Z,14.18
2022-12-20T19:06:36.610Z,12.52
2022-12-20T19:09:06.298Z,12.15
2022-12-20T19:14:01.052Z,12.27
2022-12-20T19:16:31.949Z,14.93
2022-12-20T19:19:00.639Z,16.55
2022-12-20T19:21:30.522Z,9.43
2022-12-20T19:24:00.539Z,14.43
2022-12-20T19:26:28.652Z,15.30
2022-12-20T19:28:56.591Z,19.08
2022-12-20T19:31:26.201Z,19.17
2022-12-20T19:36:27.427Z,15.30
2022-12-20T19:38:56.984Z,15.68
2022-12-20T19:41:26.997Z,14.43
2022-12-20T19:43:54.254Z,13.63
2022-12-20T19:46:28.095Z,8.45
2022-12-20T19:48:56.168Z,7.55
2022-12-20T19:51:23.950Z,6.93
2022-12-20T19:53:53.674Z,7.35
2022-12-20T19:56:23.499Z,5.93
2022-12-20T20:01:19.244Z,4.53
2022-12-20T20:03:46.354Z,6.13
2022-12-20T20:06:13.499Z,7.47
2022-12-20T20:08:41.524Z,6.10
2022-12-20T20:11:10.423Z,5.40
2022-12-20T20:13:38.662Z,4.10
2022-12-20T20:16:07.143Z,3.92
2022-12-20T20:18:36.151Z,4.00
2022-12-20T20:21:08.995Z,4.07
2022-12-20T20:23:37.666Z,4.20
2022-12-20T20:26:10.603Z,4.70
2022-12-20T20:28:44.407Z,4.10
2022-12-20T20:31:17.268Z,4.28
2022-12-20T20:33:44.626Z,5.53
2022-12-20T20:36:17.396Z,4.63
2022-12-20T20:38:45.776Z,4.18
2022-12-20T20:41:14.199Z,4.10
2022-12-20T20:43:41.724Z,4.53
2022-12-20T20:46:11.653Z,9.95
2022-12-20T20:48:39.253Z,9.48
2022-12-20T20:51:06.750Z,11.15
2022-12-20T20:53:34.496Z,11.05
2022-12-20T20:56:06.123Z,11.30
2022-12-20T20:58:34.355Z,7.45
2022-12-20T21:01:08.569Z,6.25
2022-12-20T21:03:36.783Z,6.72
2022-12-20T21:08:53.683Z,6.57
2022-12-20T21:11:20.998Z,7.90
2022-12-20T21:13:48.128Z,8.00
2022-12-20T21:16:22.359Z,6.43
2022-12-20T21:18:54.063Z,6.07
2022-12-20T21:21:21.981Z,5.90
2022-12-20T21:23:49.729Z,5.25
2022-12-20T21:26:18.490Z,5.53
2022-12-20T21:28:46.074Z,4.57
2022-12-20T21:31:15.736Z,5.25
2022-12-20T21:36:20.330Z,5.32
2022-12-20T21:38:55.730Z,4.30
2022-12-20T21:41:24.955Z,4.82
2022-12-20T21:43:55.459Z,5.32
2022-12-20T21:46:22.757Z,4.38
2022-12-20T21:48:49.813Z,4.88
2022-12-20T21:51:20.289Z,4.82
2022-12-20T21:53:52.500Z,4.55
2022-12-20T21:56:21.057Z,5.20
2022-12-20T21:58:48.318Z,4.93
2022-12-20T22:01:19.272Z,4.70
2022-12-20T22:03:50.882Z,6.05
2022-12-20T22:06:18.220Z,5.00
2022-12-20T22:08:45.865Z,4.80
2022-12-20T22:11:16.691Z,4.72
2022-12-20T22:13:44.930Z,5.55
2022-12-20T22:16:22.381Z,5.00
2022-12-20T22:18:52.380Z,5.60
2022-12-20T22:22:01.557Z,5.97
2022-12-20T22:24:29.051Z,5.03
2022-12-20T22:26:56.115Z,5.28
2022-12-20T22:29:23.339Z,5.65
2022-12-20T22:31:50.981Z,5.75
2022-12-20T22:34:18.068Z,5.97
2022-12-20T22:36:45.492Z,5.18
2022-12-20T22:39:14.523Z,4.70
2022-12-20T22:41:42.138Z,5.30
2022-12-20T22:44:09.250Z,4.45
2022-12-20T22:46:36.586Z,4.63
2022-12-20T22:49:03.987Z,4.68
2022-12-20T22:51:33.574Z,4.40
2022-12-20T22:56:28.265Z,4.20
2022-12-20T22:59:34.794Z,4.05
2022-12-20T23:02:02.025Z,4.32
2022-12-20T23:04:29.122Z,3.72
2022-12-20T23:06:56.151Z,3.80
2022-12-20T23:09:27.101Z,4.40
2022-12-20T23:12:12.500Z,4.07
2022-12-20T23:15:03.578Z,4.00
2022-12-20T23:17:33.075Z,4.50
2022-12-20T23:20:18.433Z,4.00
2022-12-20T23:22:45.959Z,4.10
2022-12-20T23:25:18.739Z,4.03
2022-12-20T23:27:48.214Z,4.28
2022-12-20T23:30:18.192Z,4.03
2022-12-20T23:32:45.511Z,3.28
2022-12-20T23:35:15.420Z,3.67
2022-12-20T23:37:42.804Z,3.05
2022-12-20T23:40:10.905Z,4.30
2022-12-20T23:42:38.468Z,3.80
2022-12-20T23:45:05.757Z,4.15
2022-12-20T23:47:33.140Z,4.40
2022-12-20T23:50:00.116Z,3.53
2022-12-20T23:52:27.211Z,3.78
2022-12-20T23:54:54.167Z,3.17
2022-12-20T23:57:21.154Z,4.18
2022-12-20T23:59:48.129Z,3.70
